Time;durP1;ratioP1;P1;durP2;ratioP2;P2;SDS_P1;SDS_P2;PMS_P1;PMS_P2;Temp;Humidity;BMP_temperature;BMP_pressure;BME280_temperature;BME280_humidity;BME280_pressure;Samples;Min_cycle;Max_cycle;Signal;HPM_P1;HPM_P2
2021/11/22 00:01:27;;;;;;;40.92;12.70;;;;;;;;;;5075262;28;20052;-65
2021/11/22 00:03:54;;;;;;;42.53;13.18;;;;;;;;;;5075010;28;20384;-65
2021/11/22 00:06:21;;;;;;;42.08;13.63;;;;;;;;;;5074483;28;20045;-66
2021/11/22 00:08:48;;;;;;;37.80;13.90;;;;;;;;;;5074694;28;20048;-66
2021/11/22 00:11:17;;;;;;;46.53;14.52;;;;;;;;;;5074779;28;20131;-66
2021/11/22 00:13:44;;;;;;;42.33;13.77;;;;;;;;;;5075162;28;20060;-65
2021/11/22 00:16:11;;;;;;;42.80;13.02;;;;;;;;;;5075209;28;20059;-66
2021/11/22 00:18:37;;;;;;;48.33;14.85;;;;;;;;;;5074730;28;20041;-66
2021/11/22 00:21:05;;;;;;;39.35;14.20;;;;;;;;;;5074362;28;20489;-66
2021/11/22 00:23:31;;;;;;;39.88;14.43;;;;;;;;;;5074748;28;20051;-66
2021/11/22 00:25:58;;;;;;;39.95;13.38;;;;;;;;;;5074753;28;20446;-65
2021/11/22 00:28:27;;;;;;;42.17;14.07;;;;;;;;;;5074734;28;20044;-66
2021/11/22 00:30:54;;;;;;;42.88;13.57;;;;;;;;;;5074898;28;20501;-65
2021/11/22 00:33:21;;;;;;;42.33;15.52;;;;;;;;;;5074273;28;20074;-66
2021/11/22 00:35:48;;;;;;;44.63;14.13;;;;;;;;;;5074757;28;20052;-66
2021/11/22 00:38:16;;;;;;;45.33;14.80;;;;;;;;;;5074662;28;20051;-66
2021/11/22 00:40:43;;;;;;;46.40;14.23;;;;;;;;;;5074055;28;20047;-65
2021/11/22 00:43:11;;;;;;;42.08;13.85;;;;;;;;;;5074144;28;20047;-66
2021/11/22 00:45:40;;;;;;;41.40;14.80;;;;;;;;;;5073601;28;20045;-66
2021/11/22 00:48:07;;;;;;;39.85;14.77;;;;;;;;;;5074171;28;20482;-66
2021/11/22 00:50:35;;;;;;;39.20;12.90;;;;;;;;;;5074120;28;20132;-66
2021/11/22 00:53:03;;;;;;;37.83;13.63;;;;;;;;;;5073753;28;20135;-67
2021/11/22 00:55:30;;;;;;;39.03;13.02;;;;;;;;;;5073667;28;20055;-66
2021/11/22 00:57:57;;;;;;;45.35;14.00;;;;;;;;;;5073967;28;20131;-66
2021/11/22 01:00:24;;;;;;;36.17;12.13;;;;;;;;;;5073704;28;20051;-65
2021/11/22 01:02:52;;;;;;;42.67;14.00;;;;;;;;;;5074055;28;20131;-66
2021/11/22 01:05:19;;;;;;;39.97;13.65;;;;;;;;;;5073482;28;20049;-67
2021/11/22 01:07:46;;;;;;;41.85;12.77;;;;;;;;;;5073550;28;20049;-66
2021/11/22 01:10:15;;;;;;;36.17;12.52;;;;;;;;;;5073856;28;20045;-66
2021/11/22 01:12:43;;;;;;;40.72;12.90;;;;;;;;;;5073397;28;20051;-66
2021/11/22 01:15:13;;;;;;;35.40;11.57;;;;;;;;;;5073177;28;20076;-67
2021/11/22 01:17:41;;;;;;;36.00;11.68;;;;;;;;;;5073484;28;20044;-67
2021/11/22 01:20:14;;;;;;;35.03;10.52;;;;;;;;;;5073867;28;20419;-67
2021/11/22 01:22:41;;;;;;;38.25;12.65;;;;;;;;;;5073495;28;20051;-65
2021/11/22 01:25:09;;;;;;;35.10;11.32;;;;;;;;;;5073667;28;20066;-65
2021/11/22 01:27:37;;;;;;;39.58;11.70;;;;;;;;;;5073437;28;20045;-65
2021/11/22 01:30:05;;;;;;;35.00;11.48;;;;;;;;;;5073401;28;20064;-65
2021/11/22 01:32:32;;;;;;;39.97;11.73;;;;;;;;;;5073463;28;20140;-66
2021/11/22 01:34:59;;;;;;;36.63;11.82;;;;;;;;;;5073206;28;20052;-65
2021/11/22 01:37:27;;;;;;;32.92;12.10;;;;;;;;;;5074001;28;20055;-65
2021/11/22 01:39:54;;;;;;;33.33;12.35;;;;;;;;;;5073295;28;20079;-65
2021/11/22 01:42:21;;;;;;;38.22;12.85;;;;;;;;;;5074081;28;20445;-67
2021/11/22 01:44:48;;;;;;;40.80;13.73;;;;;;;;;;5073341;28;20053;-65
2021/11/22 01:47:15;;;;;;;36.97;12.63;;;;;;;;;;5073801;28;20052;-65
2021/11/22 01:49:42;;;;;;;42.45;14.30;;;;;;;;;;5073473;28;20059;-66
2021/11/22 01:52:10;;;;;;;40.63;14.73;;;;;;;;;;5074051;28;20084;-65
2021/11/22 01:54:39;;;;;;;37.65;14.30;;;;;;;;;;5073685;28;20460;-64
2021/11/22 01:57:06;;;;;;;41.83;14.43;;;;;;;;;;5073180;28;20060;-64
2021/11/22 01:59:33;;;;;;;34.53;13.25;;;;;;;;;;5073411;28;20135;-64
2021/11/22 02:02:03;;;;;;;32.92;12.38;;;;;;;;;;5073488;28;20074;-67
2021/11/22 02:04:30;;;;;;;33.97;13.60;;;;;;;;;;5073444;28;20412;-65
2021/11/22 02:06:57;;;;;;;29.48;13.13;;;;;;;;;;5073232;28;20052;-67
2021/11/22 02:09:24;;;;;;;39.20;13.48;;;;;;;;;;5073560;28;20044;-65
2021/11/22 02:11:53;;;;;;;38.92;13.25;;;;;;;;;;5073708;28;20394;-64
2021/11/22 02:14:20;;;;;;;41.05;14.68;;;;;;;;;;5073196;28;20393;-65
2021/11/22 02:16:47;;;;;;;40.30;14.80;;;;;;;;;;5073678;28;20044;-65
2021/11/22 02:19:14;;;;;;;43.72;15.40;;;;;;;;;;5073238;28;20219;-62
2021/11/22 02:21:43;;;;;;;40.03;15.00;;;;;;;;;;5071202;28;20135;-63
2021/11/22 02:24:10;;;;;;;42.25;15.65;;;;;;;;;;5071079;28;20052;-62
2021/11/22 02:26:37;;;;;;;39.53;14.95;;;;;;;;;;5071180;28;20050;-62
2021/11/22 02:29:05;;;;;;;45.35;15.60;;;;;;;;;;5071473;28;20461;-66
2021/11/22 02:31:32;;;;;;;39.58;14.40;;;;;;;;;;5073615;28;20097;-66
2021/11/22 02:33:59;;;;;;;38.10;14.52;;;;;;;;;;5073072;28;20138;-65
2021/11/22 02:36:26;;;;;;;46.05;14.77;;;;;;;;;;5072564;28;20059;-65
2021/11/22 02:38:55;;;;;;;45.70;16.98;;;;;;;;;;5073050;28;20051;-66
2021/11/22 02:41:22;;;;;;;48.67;16.38;;;;;;;;;;5073777;28;20401;-66
2021/11/22 02:43:49;;;;;;;41.80;15.38;;;;;;;;;;5073193;28;20045;-66
2021/11/22 02:46:16;;;;;;;46.53;15.75;;;;;;;;;;5076429;28;20080;-66
2021/11/22 02:48:44;;;;;;;43.28;14.60;;;;;;;;;;5075406;28;20052;-66
2021/11/22 02:51:11;;;;;;;41.83;15.00;;;;;;;;;;5077079;28;20067;-66
2021/11/22 02:53:38;;;;;;;49.45;15.40;;;;;;;;;;5076831;28;20440;-66
2021/11/22 02:56:09;;;;;;;45.40;16.15;;;;;;;;;;5077257;28;20045;-66
2021/11/22 02:58:38;;;;;;;45.75;15.05;;;;;;;;;;5077406;28;20131;-66
2021/11/22 03:01:06;;;;;;;37.67;13.95;;;;;;;;;;5077683;28;20044;-66
2021/11/22 03:03:35;;;;;;;37.90;14.57;;;;;;;;;;5076869;28;20135;-66
2021/11/22 03:06:04;;;;;;;43.08;14.27;;;;;;;;;;5076662;28;20420;-65
2021/11/22 03:08:32;;;;;;;36.25;14.45;;;;;;;;;;5076144;28;20127;-66
2021/11/22 03:10:59;;;;;;;48.33;17.08;;;;;;;;;;5076476;28;20047;-66
2021/11/22 03:13:27;;;;;;;45.30;17.27;;;;;;;;;;5076253;28;20051;-66
2021/11/22 03:15:54;;;;;;;47.47;15.35;;;;;;;;;;5076348;28;20045;-64
2021/11/22 03:18:21;;;;;;;48.90;17.45;;;;;;;;;;5076556;28;20135;-66
2021/11/22 03:20:48;;;;;;;49.67;17.50;;;;;;;;;;5076248;28;20040;-66
2021/11/22 03:23:15;;;;;;;52.25;16.55;;;;;;;;;;5076697;28;20131;-65
2021/11/22 03:25:42;;;;;;;45.78;17.38;;;;;;;;;;5076873;28;20188;-65
2021/11/22 03:28:11;;;;;;;50.08;19.58;;;;;;;;;;5077492;28;20049;-66
2021/11/22 03:30:40;;;;;;;48.08;17.30;;;;;;;;;;5076587;28;20084;-66
2021/11/22 03:33:07;;;;;;;48.85;17.08;;;;;;;;;;5075587;28;20139;-65
2021/11/22 03:35:34;;;;;;;46.78;15.85;;;;;;;;;;5075367;28;20040;-65
2021/11/22 03:38:01;;;;;;;43.17;16.40;;;;;;;;;;5075676;28;20048;-66
2021/11/22 03:40:29;;;;;;;48.63;16.67;;;;;;;;;;5075894;28;20076;-65
2021/11/22 03:43:11;;;;;;;51.22;17.55;;;;;;;;;;5075909;28;20055;-67
2021/11/22 03:45:42;;;;;;;45.60;16.27;;;;;;;;;;5075535;28;20056;-66
2021/11/22 03:48:09;;;;;;;50.85;18.58;;;;;;;;;;5076051;28;20072;-66
2021/11/22 03:50:36;;;;;;;49.88;16.60;;;;;;;;;;5075638;28;20056;-66
2021/11/22 03:53:03;;;;;;;58.95;18.00;;;;;;;;;;5075527;28;20048;-66
2021/11/22 03:55:31;;;;;;;51.30;17.88;;;;;;;;;;5075114;28;20045;-67
2021/11/22 03:57:58;;;;;;;46.42;16.30;;;;;;;;;;5075042;28;20059;-67
2021/11/22 04:00:25;;;;;;;52.08;17.30;;;;;;;;;;5074691;28;20456;-65
2021/11/22 04:02:53;;;;;;;47.05;16.35;;;;;;;;;;5073296;28;20045;-65
2021/11/22 04:05:20;;;;;;;48.30;16.77;;;;;;;;;;5073385;28;20045;-64
2021/11/22 04:07:47;;;;;;;46.97;16.27;;;;;;;;;;5073387;28;20064;-63
2021/11/22 04:10:14;;;;;;;50.65;18.13;;;;;;;;;;5074996;28;20417;-66
2021/11/22 04:12:41;;;;;;;53.42;17.20;;;;;;;;;;5073103;28;20402;-66
2021/11/22 04:15:09;;;;;;;47.67;15.23;;;;;;;;;;5072858;28;20062;-65
2021/11/22 04:17:36;;;;;;;50.72;17.63;;;;;;;;;;5072851;28;20498;-65
2021/11/22 04:20:05;;;;;;;48.95;16.80;;;;;;;;;;5072950;28;20098;-65
2021/11/22 04:22:32;;;;;;;51.85;17.73;;;;;;;;;;5072686;28;20050;-64
2021/11/22 04:25:00;;;;;;;51.83;17.00;;;;;;;;;;5072420;28;20056;-64
2021/11/22 04:27:27;;;;;;;56.00;18.02;;;;;;;;;;5072941;28;20080;-65
2021/11/22 04:29:54;;;;;;;51.72;16.70;;;;;;;;;;5072609;28;20058;-63
2021/11/22 04:32:21;;;;;;;56.58;19.42;;;;;;;;;;5072481;28;20044;-65
2021/11/22 04:34:48;;;;;;;46.15;15.48;;;;;;;;;;5073021;28;20055;-64
2021/11/22 04:37:16;;;;;;;49.67;17.17;;;;;;;;;;5072609;28;20049;-65
2021/11/22 04:39:43;;;;;;;51.75;17.40;;;;;;;;;;5072359;28;20044;-66
2021/11/22 04:42:10;;;;;;;44.20;14.98;;;;;;;;;;5072492;28;20051;-62
2021/11/22 04:44:37;;;;;;;43.30;14.90;;;;;;;;;;5072311;28;20421;-63
2021/11/22 04:47:09;;;;;;;50.42;16.48;;;;;;;;;;5072288;28;20044;-64
2021/11/22 04:49:37;;;;;;;46.42;14.80;;;;;;;;;;5072313;28;20067;-61
2021/11/22 04:52:06;;;;;;;41.05;14.57;;;;;;;;;;5072287;28;20125;-62
2021/11/22 04:54:35;;;;;;;42.78;15.15;;;;;;;;;;5072451;28;20056;-62
2021/11/22 04:57:03;;;;;;;45.20;13.43;;;;;;;;;;5072442;28;20048;-63
2021/11/22 04:59:30;;;;;;;42.75;15.80;;;;;;;;;;5072157;28;20044;-63
2021/11/22 05:01:57;;;;;;;45.78;15.70;;;;;;;;;;5072341;28;20405;-62
2021/11/22 05:04:25;;;;;;;53.08;16.73;;;;;;;;;;5072152;28;20424;-62
2021/11/22 05:06:52;;;;;;;56.70;16.70;;;;;;;;;;5071829;28;20091;-63
2021/11/22 05:09:20;;;;;;;42.45;15.18;;;;;;;;;;5072304;28;20054;-63
2021/11/22 05:11:49;;;;;;;48.80;16.25;;;;;;;;;;5071901;28;20057;-61
2021/11/22 05:14:17;;;;;;;43.97;14.82;;;;;;;;;;5072295;28;20048;-63
2021/11/22 05:16:45;;;;;;;48.75;15.50;;;;;;;;;;5072032;28;20051;-62
2021/11/22 05:19:12;;;;;;;45.58;14.00;;;;;;;;;;5072110;28;20044;-62
2021/11/22 05:21:39;;;;;;;39.50;13.25;;;;;;;;;;5071919;28;20105;-62
2021/11/22 05:24:09;;;;;;;40.95;13.93;;;;;;;;;;5071867;28;20048;-62
2021/11/22 05:26:37;;;;;;;41.50;13.65;;;;;;;;;;5082356;22;20050;-65
2021/11/22 05:29:08;;;;;;;40.28;12.90;;;;;;;;;;5032330;28;20068;-67
2021/11/22 05:31:35;;;;;;;42.35;14.02;;;;;;;;;;5032023;28;20056;-65
2021/11/22 05:34:02;;;;;;;40.83;13.07;;;;;;;;;;5032175;28;20042;-66
2021/11/22 05:36:31;;;;;;;37.72;11.60;;;;;;;;;;5031782;28;20053;-65
2021/11/22 05:38:58;;;;;;;38.25;13.57;;;;;;;;;;5031904;28;20406;-68
2021/11/22 05:41:25;;;;;;;42.80;12.90;;;;;;;;;;5032310;28;20492;-65
2021/11/22 05:43:52;;;;;;;46.63;15.00;;;;;;;;;;5031805;28;20369;-67
2021/11/22 05:46:21;;;;;;;36.70;12.27;;;;;;;;;;5031634;28;20132;-66
2021/11/22 05:48:48;;;;;;;35.70;12.70;;;;;;;;;;5032092;28;20055;-66
2021/11/22 05:51:15;;;;;;;34.97;11.88;;;;;;;;;;5031845;28;20426;-66
2021/11/22 05:53:42;;;;;;;38.53;13.88;;;;;;;;;;5031827;28;20480;-67
2021/11/22 05:56:10;;;;;;;40.80;14.05;;;;;;;;;;5031398;28;20061;-67
2021/11/22 05:58:39;;;;;;;41.55;14.60;;;;;;;;;;5031579;28;20058;-67
2021/11/22 06:01:07;;;;;;;40.78;13.60;;;;;;;;;;5031840;28;20073;-67
2021/11/22 06:03:35;;;;;;;43.65;14.20;;;;;;;;;;5031683;28;20085;-62
2021/11/22 06:06:02;;;;;;;40.85;14.85;;;;;;;;;;5031563;28;20050;-67
2021/11/22 06:08:30;;;;;;;40.97;13.23;;;;;;;;;;5031723;28;20061;-68
2021/11/22 06:10:57;;;;;;;44.05;15.00;;;;;;;;;;5032202;28;20049;-64
2021/11/22 06:13:24;;;;;;;43.88;14.93;;;;;;;;;;5031461;28;20045;-64
2021/11/22 06:15:51;;;;;;;41.47;14.30;;;;;;;;;;5031576;28;20053;-64
2021/11/22 06:18:19;;;;;;;48.20;13.55;;;;;;;;;;5031420;28;20057;-64
2021/11/22 06:20:47;;;;;;;48.35;16.20;;;;;;;;;;5034279;28;20050;-64
2021/11/22 06:23:15;;;;;;;46.72;14.70;;;;;;;;;;5035579;28;20100;-64
2021/11/22 06:25:42;;;;;;;43.17;14.40;;;;;;;;;;5035257;28;20406;-64
2021/11/22 06:28:09;;;;;;;47.67;15.02;;;;;;;;;;5035229;28;20060;-64
2021/11/22 06:30:36;;;;;;;43.88;14.98;;;;;;;;;;5035277;28;20045;-63
2021/11/22 06:33:04;;;;;;;43.60;13.80;;;;;;;;;;5034901;28;20099;-64
2021/11/22 06:35:32;;;;;;;47.53;16.55;;;;;;;;;;5034881;28;20049;-63
2021/11/22 06:38:02;;;;;;;41.17;13.88;;;;;;;;;;5035137;28;20127;-64
2021/11/22 06:40:29;;;;;;;49.15;15.85;;;;;;;;;;5035188;28;20541;-64
2021/11/22 06:42:56;;;;;;;47.00;15.48;;;;;;;;;;5034999;28;20049;-64
2021/11/22 06:45:23;;;;;;;48.33;14.95;;;;;;;;;;5034915;28;20167;-63
2021/11/22 06:47:50;;;;;;;52.53;18.58;;;;;;;;;;5035130;28;20100;-64
2021/11/22 06:50:17;;;;;;;48.83;15.20;;;;;;;;;;5034749;28;20053;-64
2021/11/22 06:52:44;;;;;;;49.97;15.90;;;;;;;;;;5035019;28;20057;-64
2021/11/22 06:55:13;;;;;;;43.53;14.05;;;;;;;;;;5034782;28;20140;-63
2021/11/22 06:57:40;;;;;;;47.08;14.50;;;;;;;;;;5034571;28;20049;-63
2021/11/22 07:00:10;;;;;;;49.95;16.52;;;;;;;;;;5034312;28;20060;-65
2021/11/22 07:02:38;;;;;;;45.00;15.10;;;;;;;;;;5035101;28;20053;-64
2021/11/22 07:05:06;;;;;;;44.60;14.00;;;;;;;;;;5034634;28;20061;-63
2021/11/22 07:07:33;;;;;;;46.20;15.85;;;;;;;;;;5035408;28;20046;-64
2021/11/22 07:10:00;;;;;;;48.90;15.93;;;;;;;;;;5034451;28;20053;-64
2021/11/22 07:12:29;;;;;;;45.40;15.50;;;;;;;;;;5034503;28;20049;-64
2021/11/22 07:14:56;;;;;;;47.65;15.70;;;;;;;;;;5034107;28;20053;-64
2021/11/22 07:17:24;;;;;;;46.00;15.05;;;;;;;;;;5034860;28;20049;-64
2021/11/22 07:19:53;;;;;;;46.95;15.55;;;;;;;;;;5034164;28;20099;-64
2021/11/22 07:22:20;;;;;;;50.33;17.70;;;;;;;;;;5034095;28;20054;-64
2021/11/22 07:24:47;;;;;;;41.88;14.90;;;;;;;;;;5034251;28;20049;-64
2021/11/22 07:27:15;;;;;;;54.85;18.15;;;;;;;;;;5034381;28;20057;-63
2021/11/22 07:29:43;;;;;;;53.85;15.70;;;;;;;;;;5034177;28;20053;-64
2021/11/22 07:32:11;;;;;;;47.50;15.88;;;;;;;;;;5033602;28;20057;-64
2021/11/22 07:34:40;;;;;;;55.15;17.35;;;;;;;;;;5033916;28;20395;-63
2021/11/22 07:37:07;;;;;;;49.10;15.90;;;;;;;;;;5034323;28;20533;-63
2021/11/22 07:39:34;;;;;;;54.00;17.05;;;;;;;;;;5033831;28;20057;-64
2021/11/22 07:42:01;;;;;;;46.92;15.65;;;;;;;;;;5033759;28;20049;-64
2021/11/22 07:44:28;;;;;;;49.10;17.42;;;;;;;;;;5033856;28;20052;-64
2021/11/22 07:46:58;;;;;;;47.33;16.60;;;;;;;;;;5033392;28;20072;-63
2021/11/22 07:49:25;;;;;;;49.47;16.60;;;;;;;;;;5034096;28;20107;-64
2021/11/22 07:51:52;;;;;;;54.67;16.73;;;;;;;;;;5033803;28;20046;-64
2021/11/22 07:54:19;;;;;;;48.35;15.20;;;;;;;;;;5033745;28;20050;-64
2021/11/22 07:56:46;;;;;;;46.22;16.02;;;;;;;;;;5033574;28;20053;-64
2021/11/22 07:59:13;;;;;;;47.83;15.65;;;;;;;;;;5033570;28;20076;-64
2021/11/22 08:01:41;;;;;;;63.60;23.30;;;;;;;;;;5033740;28;20049;-64
2021/11/22 08:04:13;;;;;;;71.32;26.17;;;;;;;;;;5033868;28;20057;-64
2021/11/22 08:06:41;;;;;;;53.15;19.60;;;;;;;;;;5033964;28;20088;-64
2021/11/22 08:09:13;;;;;;;46.50;16.23;;;;;;;;;;5033571;28;20053;-64
2021/11/22 08:11:49;;;;;;;83.55;32.20;;;;;;;;;;5033426;28;20096;-64
2021/11/22 08:14:16;;;;;;;52.58;18.58;;;;;;;;;;5033753;28;20088;-64
2021/11/22 08:16:43;;;;;;;54.65;18.70;;;;;;;;;;5033319;28;20054;-64
2021/11/22 08:19:12;;;;;;;55.50;18.63;;;;;;;;;;5033224;28;20053;-64
2021/11/22 08:21:39;;;;;;;48.30;16.48;;;;;;;;;;5033202;28;20418;-64
2021/11/22 08:24:06;;;;;;;50.35;16.90;;;;;;;;;;5033191;28;20498;-63
2021/11/22 08:26:33;;;;;;;51.30;17.25;;;;;;;;;;5033093;28;20060;-64
2021/11/22 08:29:00;;;;;;;47.63;15.80;;;;;;;;;;5033161;28;20459;-64
2021/11/22 08:31:27;;;;;;;47.70;16.00;;;;;;;;;;5032927;28;20054;-64
2021/11/22 08:33:54;;;;;;;44.45;15.25;;;;;;;;;;5033023;28;20046;-64
2021/11/22 08:36:25;;;;;;;46.75;16.27;;;;;;;;;;5032637;28;20049;-64
2021/11/22 08:38:52;;;;;;;41.38;15.20;;;;;;;;;;5032768;28;20057;-64
2021/11/22 08:41:19;;;;;;;38.00;13.40;;;;;;;;;;5032564;28;20514;-64
2021/11/22 08:43:47;;;;;;;31.63;11.38;;;;;;;;;;5032034;28;20045;-64
2021/11/22 08:46:14;;;;;;;33.50;12.50;;;;;;;;;;5032179;28;20050;-64
2021/11/22 08:48:41;;;;;;;31.35;11.02;;;;;;;;;;5032665;28;20053;-64
2021/11/22 08:51:08;;;;;;;30.58;11.38;;;;;;;;;;5032626;28;20136;-64
2021/11/22 08:53:36;;;;;;;31.08;11.05;;;;;;;;;;5032746;28;20053;-64
2021/11/22 08:56:04;;;;;;;31.83;12.73;;;;;;;;;;5032339;28;20053;-65
2021/11/22 08:58:31;;;;;;;35.05;13.43;;;;;;;;;;5032564;28;20440;-64
2021/11/22 09:00:58;;;;;;;30.90;11.27;;;;;;;;;;5032585;28;20059;-64
2021/11/22 09:03:25;;;;;;;40.63;14.88;;;;;;;;;;5033095;28;20049;-66
2021/11/22 09:05:52;;;;;;;41.42;16.35;;;;;;;;;;5032394;28;20233;-66
2021/11/22 09:08:19;;;;;;;36.97;13.98;;;;;;;;;;5032365;28;20505;-65
2021/11/22 09:10:47;;;;;;;40.67;13.63;;;;;;;;;;5032281;28;20053;-67
2021/11/22 09:13:17;;;;;;;41.38;14.50;;;;;;;;;;5032749;28;20049;-66
2021/11/22 09:15:44;;;;;;;36.88;13.50;;;;;;;;;;5032137;28;20050;-66
2021/11/22 09:18:12;;;;;;;39.97;13.93;;;;;;;;;;5032464;28;20446;-67
2021/11/22 09:20:38;;;;;;;31.08;12.55;;;;;;;;;;5032401;28;20053;-66
2021/11/22 09:23:06;;;;;;;39.03;15.20;;;;;;;;;;5032471;28;20235;-65
2021/11/22 09:25:34;;;;;;;37.65;13.70;;;;;;;;;;5032201;28;20410;-66
2021/11/22 09:28:04;;;;;;;60.10;21.98;;;;;;;;;;5032393;28;20065;-66
2021/11/22 09:30:31;;;;;;;71.10;26.77;;;;;;;;;;5032044;28;20054;-65
2021/11/22 09:32:58;;;;;;;58.75;22.90;;;;;;;;;;5032142;28;20512;-67
2021/11/22 09:35:26;;;;;;;47.22;14.13;;;;;;;;;;5031845;28;20056;-66
2021/11/22 09:37:54;;;;;;;42.50;14.48;;;;;;;;;;5032116;28;20067;-65
2021/11/22 09:40:21;;;;;;;42.17;13.68;;;;;;;;;;5032301;28;20100;-66
2021/11/22 09:42:51;;;;;;;44.17;14.40;;;;;;;;;;5032022;28;20050;-65
2021/11/22 09:45:21;;;;;;;44.50;16.33;;;;;;;;;;5032261;28;20065;-66
2021/11/22 09:47:48;;;;;;;43.47;14.32;;;;;;;;;;5032675;28;20458;-66
2021/11/22 09:50:16;;;;;;;45.47;13.77;;;;;;;;;;5032000;28;20047;-66
2021/11/22 09:52:43;;;;;;;45.33;14.90;;;;;;;;;;5032243;28;20053;-68
2021/11/22 09:55:10;;;;;;;42.83;14.18;;;;;;;;;;5035486;28;20056;-66
2021/11/22 09:57:37;;;;;;;42.63;14.43;;;;;;;;;;5035973;28;20408;-66
2021/11/22 10:00:06;;;;;;;42.33;14.95;;;;;;;;;;5035823;28;20060;-67
2021/11/22 10:02:47;;;;;;;37.20;13.40;;;;;;;;;;5036022;28;20057;-69
2021/11/22 10:05:23;;;;;;;41.17;13.25;;;;;;;;;;5035488;28;20041;-66
2021/11/22 10:08:03;;;;;;;33.90;11.98;;;;;;;;;;5035823;28;20055;-67
2021/11/22 10:10:34;;;;;;;;;;;;;;;;;;5036380;28;20050;-66
2021/11/22 10:13:03;;;;;;;46.28;15.57;;;;;;;;;;5035499;28;20349;-66
2021/11/22 10:15:33;;;;;;;63.60;25.83;;;;;;;;;;5035170;28;20056;-68
2021/11/22 10:18:01;;;;;;;62.22;24.55;;;;;;;;;;5035581;28;20084;-68
2021/11/22 10:20:30;;;;;;;53.20;18.75;;;;;;;;;;5035360;28;20057;-66
2021/11/22 10:23:04;;;;;;;50.50;16.63;;;;;;;;;;5035328;28;20049;-66
2021/11/22 10:25:35;;;;;;;44.40;15.07;;;;;;;;;;5035693;28;20077;-66
2021/11/22 10:28:08;;;;;;;39.50;13.27;;;;;;;;;;5035310;28;20096;-67
2021/11/22 10:30:40;;;;;;;41.08;12.55;;;;;;;;;;5035437;28;20064;-66
2021/11/22 10:33:10;;;;;;;34.97;12.80;;;;;;;;;;5035593;28;20108;-66
2021/11/22 10:35:38;;;;;;;40.58;12.98;;;;;;;;;;5035100;28;20045;-65
2021/11/22 10:38:10;;;;;;;37.85;14.63;;;;;;;;;;5035391;28;20092;-65
2021/11/22 10:40:39;;;;;;;36.35;13.30;;;;;;;;;;5035174;28;20049;-66
2021/11/22 10:43:07;;;;;;;37.75;12.75;;;;;;;;;;5035109;28;20061;-65
2021/11/22 10:45:37;;;;;;;42.20;13.18;;;;;;;;;;5035007;28;20404;-66
2021/11/22 10:48:20;;;;;;;42.33;12.98;;;;;;;;;;5035229;28;20057;-65
2021/11/22 10:50:53;;;;;;;39.28;13.35;;;;;;;;;;5035167;28;20049;-67
2021/11/22 10:53:32;;;;;;;40.60;15.38;;;;;;;;;;5035184;28;20053;-66
2021/11/22 10:56:00;;;;;;;44.30;15.32;;;;;;;;;;5034838;28;20065;-66
2021/11/22 10:58:32;;;;;;;39.45;14.25;;;;;;;;;;5034886;28;20045;-67
2021/11/22 11:01:12;;;;;;;48.53;15.95;;;;;;;;;;5034757;28;20046;-66
2021/11/22 11:03:40;;;;;;;44.42;14.27;;;;;;;;;;5035019;28;20128;-65
2021/11/22 11:06:07;;;;;;;44.25;15.65;;;;;;;;;;5034036;28;20083;-69
2021/11/22 11:08:34;;;;;;;49.95;16.65;;;;;;;;;;5034884;28;20076;-66
2021/11/22 11:11:12;;;;;;;41.65;14.90;;;;;;;;;;5034638;28;20068;-69
2021/11/22 11:13:44;;;;;;;41.10;14.98;;;;;;;;;;5034723;28;20502;-68
2021/11/22 11:16:12;;;;;;;42.83;14.82;;;;;;;;;;5034695;28;20536;-65
2021/11/22 11:18:40;;;;;;;41.30;14.20;;;;;;;;;;5034506;28;20052;-65
2021/11/22 11:21:07;;;;;;;45.83;15.40;;;;;;;;;;5034533;28;20093;-66
2021/11/22 11:23:35;;;;;;;47.45;15.52;;;;;;;;;;5034460;28;20055;-66
2021/11/22 11:26:02;;;;;;;39.83;13.38;;;;;;;;;;5034403;28;20055;-65
2021/11/22 11:28:30;;;;;;;39.78;14.60;;;;;;;;;;5046163;22;20576;-63
2021/11/22 11:30:57;;;;;;;40.22;14.27;;;;;;;;;;5034628;28;20379;-61
2021/11/22 11:33:24;;;;;;;40.53;13.35;;;;;;;;;;5034906;28;20519;-63
2021/11/22 11:35:57;;;;;;;46.72;16.25;;;;;;;;;;5034440;28;20053;-63
2021/11/22 11:38:35;;;;;;;36.15;14.48;;;;;;;;;;5034511;28;20053;-60
2021/11/22 11:41:09;;;;;;;39.50;14.43;;;;;;;;;;5034326;28;20054;-61
2021/11/22 11:44:08;;;;;;;43.92;16.90;;;;;;;;;;5034315;28;20050;-63
2021/11/22 11:46:48;;;;;;;39.45;13.50;;;;;;;;;;5001131;28;20064;-60
2021/11/22 11:49:15;;;;;;;40.22;15.48;;;;;;;;;;5034261;28;20107;-64
2021/11/22 11:51:45;;;;;;;37.40;13.73;;;;;;;;;;5033954;28;20092;-63
2021/11/22 11:54:15;;;;;;;36.33;14.60;;;;;;;;;;5034478;28;20057;-62
2021/11/22 11:56:51;;;;;;;39.53;15.48;;;;;;;;;;5034012;28;20490;-63
2021/11/22 11:59:22;;;;;;;42.38;14.18;;;;;;;;;;5034433;28;20144;-62
2021/11/22 12:02:06;;;;;;;39.00;15.60;;;;;;;;;;5034486;28;20050;-63
2021/11/22 12:04:56;;;;;;;35.58;12.98;;;;;;;;;;5034627;28;20053;-64
2021/11/22 12:07:29;;;;;;;37.28;13.25;;;;;;;;;;5034658;28;20140;-63
2021/11/22 12:10:15;;;;;;;32.88;12.50;;;;;;;;;;5034460;28;20054;-63
2021/11/22 12:12:49;;;;;;;31.80;11.95;;;;;;;;;;5034277;28;20052;-61
2021/11/22 12:15:23;;;;;;;30.02;13.50;;;;;;;;;;5034242;28;20547;-63
2021/11/22 12:17:52;;;;;;;31.83;11.95;;;;;;;;;;5033281;28;20060;-63
2021/11/22 12:20:46;;;;;;;39.80;14.38;;;;;;;;;;5033812;28;20050;-63
2021/11/22 12:23:17;;;;;;;38.47;14.80;;;;;;;;;;5033706;28;20045;-62
2021/11/22 12:25:47;;;;;;;34.88;13.65;;;;;;;;;;5033678;28;20049;-63
2021/11/22 12:28:36;;;;;;;45.65;20.02;;;;;;;;;;5034245;28;20418;-64
2021/11/22 12:31:05;;;;;;;37.63;15.25;;;;;;;;;;5033269;28;20064;-62
2021/11/22 12:33:38;;;;;;;46.50;17.30;;;;;;;;;;5033494;28;20104;-63
2021/11/22 12:36:07;;;;;;;32.15;13.73;;;;;;;;;;5033673;28;20061;-62
2021/11/22 12:38:37;;;;;;;33.78;12.35;;;;;;;;;;5033536;28;20045;-64
2021/11/22 12:41:06;;;;;;;33.60;12.13;;;;;;;;;;5033528;28;20132;-62
2021/11/22 12:43:43;;;;;;;28.58;11.07;;;;;;;;;;5033156;28;20050;-62
2021/11/22 12:46:12;;;;;;;32.05;11.35;;;;;;;;;;5033379;28;20053;-63
2021/11/22 12:48:42;;;;;;;32.47;13.02;;;;;;;;;;5033142;28;20056;-62
2021/11/22 12:51:11;;;;;;;30.48;13.23;;;;;;;;;;5033702;28;20482;-63
2021/11/22 12:54:00;;;;;;;28.60;11.88;;;;;;;;;;5033163;28;20045;-61
2021/11/22 12:56:27;;;;;;;25.50;11.35;;;;;;;;;;5032966;28;20487;-63
2021/11/22 12:59:05;;;;;;;30.88;12.00;;;;;;;;;;5033131;28;20524;-62
2021/11/22 13:01:32;;;;;;;30.58;11.88;;;;;;;;;;5033025;28;20045;-63
2021/11/22 13:03:59;;;;;;;27.38;11.38;;;;;;;;;;5032915;28;20131;-63
2021/11/22 13:06:34;;;;;;;33.97;12.20;;;;;;;;;;5033166;28;20052;-63
2021/11/22 13:09:03;;;;;;;29.40;12.73;;;;;;;;;;5032786;28;20054;-63
2021/11/22 13:11:43;;;;;;;44.28;16.00;;;;;;;;;;5032698;28;20052;-63
2021/11/22 13:14:13;;;;;;;32.85;12.20;;;;;;;;;;5032973;28;20127;-63
2021/11/22 13:16:41;;;;;;;28.42;12.63;;;;;;;;;;5032838;28;20089;-62
2021/11/22 13:19:10;;;;;;;30.77;10.80;;;;;;;;;;5032652;28;20444;-62
2021/11/22 13:21:40;;;;;;;28.17;11.20;;;;;;;;;;5032459;28;20045;-61
2021/11/22 13:24:11;;;;;;;31.13;11.90;;;;;;;;;;5032876;28;20049;-63
2021/11/22 13:26:39;;;;;;;32.17;11.88;;;;;;;;;;5032810;28;20054;-63
2021/11/22 13:29:09;;;;;;;30.30;12.50;;;;;;;;;;5032563;28;20490;-63
2021/11/22 13:31:40;;;;;;;33.38;12.88;;;;;;;;;;5032932;28;20053;-59
2021/11/22 13:34:08;;;;;;;27.88;11.60;;;;;;;;;;5032963;28;20057;-63
2021/11/22 13:36:37;;;;;;;33.25;11.35;;;;;;;;;;5032344;28;20099;-62
2021/11/22 13:39:16;;;;;;;32.45;11.70;;;;;;;;;;5032553;28;20137;-64
2021/11/22 13:41:53;;;;;;;32.40;12.23;;;;;;;;;;5032511;28;20467;-63
2021/11/22 13:44:20;;;;;;;28.88;11.40;;;;;;;;;;5032494;28;20053;-63
2021/11/22 13:46:47;;;;;;;30.48;11.55;;;;;;;;;;5032062;28;20045;-62
2021/11/22 13:49:14;;;;;;;28.17;10.98;;;;;;;;;;5032342;28;20085;-63
2021/11/22 13:51:44;;;;;;;27.50;11.00;;;;;;;;;;5032162;28;20053;-63
2021/11/22 13:54:14;;;;;;;28.73;11.07;;;;;;;;;;5032118;28;20076;-63
2021/11/22 13:56:44;;;;;;;28.55;11.73;;;;;;;;;;5032427;28;20107;-61
2021/11/22 13:59:19;;;;;;;26.00;10.68;;;;;;;;;;5032332;28;20061;-63
2021/11/22 14:01:48;;;;;;;27.45;11.38;;;;;;;;;;5032090;28;20053;-63
2021/11/22 14:04:16;;;;;;;36.38;13.65;;;;;;;;;;5032280;28;20506;-64
2021/11/22 14:06:44;;;;;;;41.28;16.20;;;;;;;;;;5032139;28;20053;-62
2021/11/22 14:09:14;;;;;;;53.67;22.02;;;;;;;;;;5032409;28;20049;-63
2021/11/22 14:11:49;;;;;;;36.38;14.48;;;;;;;;;;5032308;28;20057;-62
2021/11/22 14:14:18;;;;;;;26.50;10.85;;;;;;;;;;5031946;28;20072;-62
2021/11/22 14:16:49;;;;;;;24.58;10.48;;;;;;;;;;5031624;28;20046;-62
2021/11/22 14:19:16;;;;;;;29.48;10.70;;;;;;;;;;5031857;28;20064;-63
2021/11/22 14:21:43;;;;;;;23.88;9.85;;;;;;;;;;5031540;28;20049;-63
2021/11/22 14:24:14;;;;;;;31.45;10.20;;;;;;;;;;5032128;28;20152;-64
2021/11/22 14:26:43;;;;;;;28.88;11.20;;;;;;;;;;5031819;28;20054;-63
2021/11/22 14:29:19;;;;;;;28.00;10.73;;;;;;;;;;5032157;28;20131;-64